Terminal Aerodrome Forecast
Issued by NWS

Home | Current Version | Previous Version | Text Only | Print | Product List | Glossary On
Versions: 1 2 3 4 5 6 7 8 9 10 11 12 13 14 15 16 17 18 19
502
FTUS46 KLOX 290301 AAA
TAFSBA
TAF AMD
KSBA 290301Z 2903/2924 34018G25KT P6SM SKC WS010/36035KT
     FM290600 35012KT P6SM SKC WS010/01030KT
     FM291000 36008KT P6SM SKC
     FM291800 16008KT P6SM SKC
     FM292100 26013KT P6SM SKC=

USA.gov is the U.S. government's official web portal to all federal, state and local government web resources and services.